Grand Cayman, Cayman Islands

11:29 PM EST on July 03, 2015 (GMT -0500)
Cayman Retreat | | Change Station
CLOSE
Current Station
Personal Weather Station
Location: George Town,
Elevation: 6 ft
Nearby Weather Stations

Elev 6 ft 19.27 °N, 81.39 °W | Updated 5 seconds ago

Partly Cloudy
Partly Cloudy
80.3 °F
Feels Like 85 °F
N
4.6
Wind Variable Wind from ENE
Gusts 4.6 mph

Today
High -- | Low -- °F
--% Chance of Precip.
Yesterday
High -- | Low -- °F
Precip. -- in
5:51 AM 7:07 PM
Waning Gibbous, 94% visible
Pressure 30.01 in
Visibility 6.2 miles
Clouds Few 2200 ft
Heat Index 85 °F
Dew Point 75 °F
Humidity 83%
Rainfall in
Snow Depth Not available.
UV 0 out of 12
Pollen Not available.
Air Quality Not available.
Flu Activity Not available.
METAR MWCR 040300Z 07007KT 9999 FEW022 29/26 Q1016

More Conditions Fewer Conditions

Pressure 30.01 in
Visibility 6.2 miles
Clouds Few 2200 ft
Heat Index 85 °F
Dew Point 75 °F
Humidity 83%
Rainfall in
Snow Depth Not available.
UV 0 out of 12
Pollen Not available.
Air Quality Not available.
Flu Activity Not available.
METAR MWCR 040300Z 07007KT 9999 FEW022 29/26 Q1016

More Conditions Fewer Conditions

10-Day Weather Forecast

×

Almanac

Astronomy

Jul. 03, 2015 Rise Set
Actual Time
Civil Twilight
Nautical Twilight
Astronomical Twilight
Moon
Length of Visible Light
Length of Day
Tomorrow will be .
, % of the Moon is Illuminated

Today's Extremes

Country Highs Country Lows

Community

WunderPhotos

Upload Photos

1,834,930 photos uploaded!

WunderBlogs® & News

Nearby

Air Quality

  Air Quality AQ Index Pollutant
Not available.

Snow Depth

Station Depth Elevation

Earthquake Activity

City Distance Mag. Time & Date
Minimum magnitude displayed is 2.5.

Coastal Water Temperatures

Place Temperature

Stations

Nearby Weather Stations

Station Location Temp. Windchill Dew Point Humidity Wind Precip. Elev Updated Type